Time;durP1;ratioP1;P1;durP2;ratioP2;P2;SDS_P1;SDS_P2;PMS_P1;PMS_P2;Temp;Humidity;BMP_temperature;BMP_pressure;BME280_temperature;BME280_humidity;BME280_pressure;Samples;Min_cycle;Max_cycle;Signal;HPM_P1;HPM_P2
2022/12/02 00:01:57;;;;;;;9.20;7.68;;;6.20;66.20;;;;;;5075461;28;20655;-77
2022/12/02 00:04:41;;;;;;;8.48;7.28;;;6.20;66.20;;;;;;5085858;28;20047;-77
2022/12/02 00:07:26;;;;;;;7.75;6.82;;;6.20;66.20;;;;;;5082787;28;20058;-77
2022/12/02 00:10:19;;;;;;;8.20;7.10;;;6.10;66.10;;;;;;5086117;28;20043;-78
2022/12/02 00:13:17;;;;;;;7.93;6.82;;;6.10;66.10;;;;;;5084729;28;20055;-77
2022/12/02 00:16:03;;;;;;;9.05;7.07;;;6.10;66.20;;;;;;5089318;28;20517;-77
2022/12/02 00:18:49;;;;;;;7.97;7.15;;;6.10;66.20;;;;;;5080578;28;20101;-77
2022/12/02 00:21:33;;;;;;;8.88;6.88;;;6.00;66.00;;;;;;5082723;28;20096;-77
2022/12/02 00:24:19;;;;;;;8.07;7.03;;;6.00;66.00;;;;;;5083210;28;20469;-76
2022/12/02 00:27:03;;;;;;;7.43;6.60;;;6.00;66.00;;;;;;5086155;28;20464;-76
2022/12/02 00:29:47;;;;;;;7.90;7.10;;;6.00;66.00;;;;;;5078653;28;20442;-76
2022/12/02 00:32:32;;;;;;;8.20;6.85;;;6.00;66.00;;;;;;5084114;28;20043;-76
2022/12/02 00:35:17;;;;;;;9.13;7.72;;;6.00;66.00;;;;;;5084451;28;20063;-76
2022/12/02 00:38:02;;;;;;;7.60;6.78;;;6.00;66.00;;;;;;5087270;28;20033;-77
2022/12/02 00:40:46;;;;;;;8.48;7.35;;;6.00;66.00;;;;;;5076037;28;20097;-77
2022/12/02 00:46:35;;;;;;;;;;;6.00;66.00;;;;;;5078286;28;20051;-77
2022/12/02 00:49:19;;;;;;;9.27;8.15;;;6.00;66.00;;;;;;5084251;28;19922;-76
2022/12/02 00:52:04;;;;;;;8.55;7.65;;;5.90;65.80;;;;;;5082259;28;20059;-77
2022/12/02 00:54:48;;;;;;;10.10;7.85;;;5.90;65.80;;;;;;5084267;28;20038;-77
2022/12/02 00:57:33;;;;;;;8.57;7.70;;;5.90;65.80;;;;;;5077059;28;20043;-76
2022/12/02 01:00:18;;;;;;;9.43;8.43;;;5.80;65.70;;;;;;5085838;28;20075;-76
2022/12/02 01:03:02;;;;;;;10.68;8.95;;;5.90;65.80;;;;;;5075797;28;20035;-76
2022/12/02 01:05:47;;;;;;;11.30;8.48;;;5.80;65.70;;;;;;5084534;28;20139;-78
2022/12/02 01:08:33;;;;;;;10.73;8.88;;;5.80;65.70;;;;;;5063292;28;20039;-77
2022/12/02 01:11:17;;;;;;;9.70;8.38;;;5.80;65.70;;;;;;5079569;28;20078;-77
2022/12/02 01:14:02;;;;;;;11.27;8.30;;;5.80;65.70;;;;;;5085229;28;20051;-76
2022/12/02 01:16:46;;;;;;;9.63;7.95;;;5.70;65.60;;;;;;5082230;28;20247;-77
2022/12/02 01:19:31;;;;;;;9.27;7.47;;;5.70;65.60;;;;;;5070525;28;20046;-78
2022/12/02 01:22:15;;;;;;;11.15;8.45;;;5.70;65.60;;;;;;5080893;28;20047;-78
2022/12/02 01:25:00;;;;;;;11.95;8.68;;;5.70;65.60;;;;;;5076664;28;20036;-79
2022/12/02 01:27:44;;;;;;;10.32;7.80;;;5.70;65.60;;;;;;5073819;28;20050;-76
2022/12/02 01:30:29;;;;;;;10.65;8.73;;;5.70;65.60;;;;;;5084327;28;20082;-79
2022/12/02 01:33:13;;;;;;;11.02;8.73;;;5.70;65.60;;;;;;5084030;28;20056;-79
2022/12/02 01:35:58;;;;;;;9.65;7.85;;;5.70;65.60;;;;;;5073051;28;20525;-78
2022/12/02 01:38:43;;;;;;;9.95;8.48;;;5.70;65.60;;;;;;5086476;28;20093;-78
2022/12/02 01:41:27;;;;;;;10.48;7.70;;;5.70;65.60;;;;;;5079080;28;20067;-78
2022/12/02 01:44:12;;;;;;;9.32;7.35;;;5.60;65.40;;;;;;5080661;28;20050;-78
2022/12/02 01:46:57;;;;;;;9.80;8.27;;;5.60;65.40;;;;;;5073487;28;20109;-78
2022/12/02 01:49:41;;;;;;;9.88;7.95;;;5.60;65.40;;;;;;5081421;28;20404;-77
2022/12/02 01:52:26;;;;;;;8.93;7.35;;;5.60;65.40;;;;;;5073057;28;20090;-77
2022/12/02 01:55:14;;;;;;;8.77;7.50;;;5.50;65.20;;;;;;5070827;28;20687;-77
2022/12/02 01:57:59;;;;;;;9.38;7.32;;;5.60;65.40;;;;;;5079946;28;20092;-76
2022/12/02 02:00:43;;;;;;;8.60;7.60;;;5.60;65.40;;;;;;5061457;28;20047;-77
2022/12/02 02:03:28;;;;;;;8.45;7.05;;;5.60;65.90;;;;;;5083135;28;20031;-77
2022/12/02 02:06:12;;;;;;;8.50;7.22;;;5.50;65.20;;;;;;5083269;28;20374;-77
2022/12/02 02:08:57;;;;;;;10.30;7.93;;;5.50;65.20;;;;;;5081014;28;20047;-77
2022/12/02 02:11:43;;;;;;;8.07;6.72;;;5.50;65.30;;;;;;5083271;28;20550;-78
2022/12/02 02:14:28;;;;;;;9.32;7.63;;;5.50;65.30;;;;;;5079445;28;20109;-77
2022/12/02 02:17:12;;;;;;;8.27;7.18;;;5.50;65.30;;;;;;5066829;28;20046;-78
2022/12/02 02:19:57;;;;;;;8.57;7.20;;;5.50;65.30;;;;;;5087392;28;20067;-76
2022/12/02 02:23:00;;;;;;;8.85;7.40;;;5.50;65.30;;;;;;5081436;28;20170;-77
2022/12/02 02:25:46;;;;;;;7.97;6.53;;;5.50;65.30;;;;;;5081931;28;20034;-77
2022/12/02 02:28:33;;;;;;;8.48;7.32;;;5.50;65.30;;;;;;5077597;28;20079;-77
2022/12/02 02:31:19;;;;;;;8.20;6.78;;;5.50;65.30;;;;;;5081828;28;20051;-77
2022/12/02 02:34:03;;;;;;;9.10;7.13;;;5.50;65.80;;;;;;5082721;28;20051;-78
2022/12/02 02:36:48;;;;;;;8.15;6.60;;;5.50;65.30;;;;;;5079604;28;20043;-78
2022/12/02 02:39:32;;;;;;;8.02;6.68;;;5.50;65.20;;;;;;5082444;28;20127;-77
2022/12/02 02:42:17;;;;;;;8.85;7.03;;;5.50;65.30;;;;;;5074420;28;20105;-77
2022/12/02 02:45:02;;;;;;;6.88;6.15;;;5.40;65.10;;;;;;5081517;28;20181;-78
2022/12/02 02:47:47;;;;;;;8.80;6.03;;;5.40;65.10;;;;;;5081942;28;20189;-78
2022/12/02 02:50:33;;;;;;;8.05;6.43;;;5.40;65.10;;;;;;5090226;28;20042;-77
2022/12/02 02:53:21;;;;;;;8.48;7.03;;;5.40;65.10;;;;;;5089936;28;20517;-76
2022/12/02 02:56:07;;;;;;;7.95;6.25;;;5.40;65.10;;;;;;5085930;28;20484;-76
2022/12/02 02:58:54;;;;;;;6.70;5.88;;;5.40;65.10;;;;;;5088775;28;20043;-77
2022/12/02 03:01:39;;;;;;;7.22;6.25;;;5.40;65.10;;;;;;5089800;28;20116;-76
2022/12/02 03:04:24;;;;;;;7.45;6.28;;;5.30;64.90;;;;;;5089862;28;20463;-76
2022/12/02 03:07:10;;;;;;;8.60;6.93;;;5.30;64.90;;;;;;5081853;28;20427;-77
2022/12/02 03:09:55;;;;;;;8.27;6.40;;;5.40;65.10;;;;;;5091395;28;20047;-77
2022/12/02 03:12:41;;;;;;;9.00;6.35;;;5.30;65.00;;;;;;5088791;28;20070;-77
2022/12/02 03:15:27;;;;;;;8.07;6.50;;;5.30;64.90;;;;;;5085536;28;20047;-76
2022/12/02 03:18:12;;;;;;;6.68;5.97;;;5.30;65.00;;;;;;5079660;28;20042;-77
2022/12/02 03:20:56;;;;;;;7.93;6.22;;;5.30;65.00;;;;;;5088192;28;20039;-76
2022/12/02 03:23:42;;;;;;;7.28;6.25;;;5.30;65.00;;;;;;5077854;28;20102;-77
2022/12/02 03:26:27;;;;;;;7.50;6.55;;;5.30;65.00;;;;;;5091185;28;20169;-77
2022/12/02 03:29:13;;;;;;;9.77;7.35;;;5.30;65.00;;;;;;5089740;28;20314;-77
2022/12/02 03:31:59;;;;;;;8.30;7.00;;;5.30;65.00;;;;;;5086956;28;20203;-76
2022/12/02 03:34:43;;;;;;;7.88;6.68;;;5.30;65.50;;;;;;5083235;28;20058;-76
2022/12/02 03:37:28;;;;;;;7.75;6.30;;;5.30;64.90;;;;;;5090563;28;20132;-77
2022/12/02 03:40:12;;;;;;;8.07;6.30;;;5.30;65.00;;;;;;5083794;28;20039;-77
2022/12/02 03:42:58;;;;;;;7.53;6.20;;;5.30;64.90;;;;;;5093265;28;20035;-78
2022/12/02 03:45:43;;;;;;;7.82;6.53;;;5.20;64.80;;;;;;5100176;28;20117;-77
2022/12/02 03:48:28;;;;;;;9.23;7.22;;;5.20;64.80;;;;;;5077891;28;20560;-77
2022/12/02 03:51:14;;;;;;;7.65;6.45;;;5.20;64.80;;;;;;5087567;28;20042;-77
2022/12/02 03:53:59;;;;;;;7.70;6.60;;;5.20;64.80;;;;;;5087245;28;20070;-76
2022/12/02 03:56:44;;;;;;;8.25;6.57;;;5.20;64.80;;;;;;5090256;28;20159;-78
2022/12/02 03:59:28;;;;;;;8.80;6.38;;;5.20;64.80;;;;;;5088307;28;20448;-77
2022/12/02 04:02:13;;;;;;;7.82;6.50;;;5.20;64.80;;;;;;5088163;28;20440;-78
2022/12/02 04:04:57;;;;;;;8.73;6.10;;;5.20;64.80;;;;;;5071636;28;20031;-76
2022/12/02 04:07:42;;;;;;;7.57;6.40;;;5.20;64.80;;;;;;5082709;28;20043;-78
2022/12/02 04:10:27;;;;;;;7.97;6.40;;;5.20;64.80;;;;;;5089302;28;20264;-76
2022/12/02 04:13:11;;;;;;;7.80;6.43;;;5.10;64.60;;;;;;5078533;28;20674;-78
2022/12/02 04:15:56;;;;;;;9.35;6.68;;;5.10;64.70;;;;;;5086941;28;20082;-77
2022/12/02 04:18:40;;;;;;;7.25;5.78;;;5.20;64.80;;;;;;5089821;28;20043;-78
2022/12/02 04:21:25;;;;;;;8.65;6.30;;;5.20;64.90;;;;;;5088615;28;20185;-77
2022/12/02 04:24:09;;;;;;;7.15;5.50;;;5.10;64.60;;;;;;5089114;28;20035;-79
2022/12/02 04:26:54;;;;;;;7.80;5.93;;;5.10;64.60;;;;;;5083724;28;20086;-78
2022/12/02 04:29:38;;;;;;;7.68;5.53;;;5.10;64.60;;;;;;5090125;28;20406;-78
2022/12/02 04:32:23;;;;;;;6.88;6.18;;;5.10;64.60;;;;;;5087349;28;20166;-78
2022/12/02 04:35:08;;;;;;;8.18;6.25;;;5.10;64.60;;;;;;5088933;28;20250;-78
2022/12/02 04:37:54;;;;;;;9.60;5.88;;;5.10;64.60;;;;;;5092943;28;20054;-78
2022/12/02 04:40:38;;;;;;;8.23;6.55;;;5.10;64.60;;;;;;5087148;28;20039;-78
2022/12/02 04:43:23;;;;;;;9.32;6.75;;;5.10;64.60;;;;;;5089887;28;20031;-78
2022/12/02 04:46:07;;;;;;;7.70;5.60;;;5.10;64.60;;;;;;5078595;28;20039;-78
2022/12/02 04:48:52;;;;;;;8.07;6.65;;;5.10;64.60;;;;;;5081482;28;20103;-78
2022/12/02 04:51:36;;;;;;;8.25;6.22;;;5.10;64.60;;;;;;5086821;28;20086;-78
2022/12/02 04:54:21;;;;;;;7.05;5.75;;;5.10;64.60;;;;;;5089206;28;20047;-78
2022/12/02 04:57:06;;;;;;;8.77;6.20;;;5.10;64.60;;;;;;5088322;28;20090;-78
2022/12/02 04:59:50;;;;;;;9.45;6.57;;;5.10;64.60;;;;;;5087631;28;20555;-77
2022/12/02 05:02:35;;;;;;;8.82;6.38;;;5.10;64.60;;;;;;5089037;28;20059;-77
2022/12/02 05:05:20;;;;;;;8.50;6.50;;;5.10;64.60;;;;;;5084847;28;20036;-77
2022/12/02 05:08:04;;;;;;;8.93;5.97;;;5.10;64.60;;;;;;5076226;28;20050;-76
2022/12/02 05:10:49;;;;;;;10.68;6.53;;;5.10;64.70;;;;;;5087688;28;20038;-78
2022/12/02 05:13:34;;;;;;;8.60;5.78;;;5.10;64.70;;;;;;5082908;28;20537;-78
2022/12/02 05:16:18;;;;;;;9.65;6.82;;;5.10;64.70;;;;;;5071028;28;20510;-77
2022/12/02 05:19:03;;;;;;;8.23;6.30;;;5.10;65.20;;;;;;5085829;28;20043;-78
2022/12/02 05:21:47;;;;;;;8.95;6.25;;;5.10;64.70;;;;;;5072456;28;20035;-78
2022/12/02 05:24:32;;;;;;;9.20;6.45;;;5.10;64.70;;;;;;5086504;28;20035;-78
2022/12/02 05:27:17;;;;;;;10.10;6.50;;;5.10;65.20;;;;;;5081785;28;20559;-78
2022/12/02 05:30:03;;;;;;;9.23;6.80;;;5.20;64.90;;;;;;5076623;28;20086;-79
2022/12/02 05:32:47;;;;;;;7.95;5.95;;;5.20;64.90;;;;;;5088081;28;20126;-77
2022/12/02 05:35:32;;;;;;;9.02;5.90;;;5.20;64.80;;;;;;5086533;28;20067;-79
2022/12/02 05:38:16;;;;;;;9.02;6.57;;;5.20;64.80;;;;;;5091334;28;20081;-79
2022/12/02 05:41:01;;;;;;;9.90;6.32;;;5.20;64.90;;;;;;5081321;28;20134;-79
2022/12/02 05:43:45;;;;;;;9.07;6.38;;;5.20;64.80;;;;;;5073742;28;20098;-81
2022/12/02 05:46:30;;;;;;;8.38;6.65;;;5.20;64.80;;;;;;5082586;28;20059;-88
2022/12/02 05:49:20;;;;;;;8.63;5.90;;;5.20;64.80;;;;;;5080805;28;20043;-94
2022/12/02 05:52:25;;;;;;;8.88;6.53;;;5.20;64.80;;;;;;5084927;28;20528;-95
2022/12/02 05:55:18;;;;;;;8.45;5.78;;;5.20;64.80;;;;;;5098471;28;20108;-94
2022/12/02 05:58:06;;;;;;;9.68;6.05;;;5.20;64.70;;;;;;5084043;28;20065;-86
2022/12/02 06:00:56;;;;;;;7.50;5.78;;;5.20;64.80;;;;;;5085263;28;20094;-86
2022/12/02 06:03:40;;;;;;;9.27;6.47;;;5.20;64.80;;;;;;5074150;28;20117;-78
2022/12/02 06:06:31;;;;;;;9.20;7.32;;;5.20;64.80;;;;;;5083584;28;20105;-77
2022/12/02 06:09:19;;;;;;;9.43;6.53;;;5.10;64.70;;;;;;5081820;28;20934;-79
2022/12/02 06:12:13;;;;;;;9.32;6.45;;;5.10;64.70;;;;;;5086129;28;20046;-85
2022/12/02 06:14:58;;;;;;;8.32;6.53;;;5.10;64.70;;;;;;5083885;28;20105;-86
2022/12/02 06:17:43;;;;;;;7.50;5.32;;;5.10;64.70;;;;;;5078828;28;20035;-84
2022/12/02 06:20:32;;;;;;;8.18;6.15;;;5.10;64.70;;;;;;5092657;28;20039;-83
2022/12/02 06:23:22;;;;;;;10.02;7.25;;;5.10;64.70;;;;;;5081359;28;20114;-83
2022/12/02 06:26:06;;;;;;;11.30;6.97;;;5.10;64.70;;;;;;5088010;28;20050;-83
2022/12/02 06:29:01;;;;;;;7.95;5.97;;;5.10;64.70;;;;;;5064234;28;20047;-84
2022/12/02 06:31:45;;;;;;;7.20;6.28;;;5.10;64.70;;;;;;5083749;28;20155;-76
2022/12/02 06:34:40;;;;;;;9.57;6.07;;;5.10;64.70;;;;;;5069091;28;20658;-77
2022/12/02 06:37:28;;;;;;;8.15;5.93;;;5.10;65.20;;;;;;5081588;28;20046;-85
2022/12/02 06:40:39;;;;;;;9.10;6.40;;;5.10;64.70;;;;;;5076375;28;20047;-86
2022/12/02 06:43:29;;;;;;;8.85;6.28;;;5.00;64.60;;;;;;5080460;28;20091;-81
2022/12/02 06:46:19;;;;;;;7.47;5.97;;;5.00;64.50;;;;;;5079562;28;20186;-82
2022/12/02 06:49:24;;;;;;;8.93;6.32;;;5.00;64.50;;;;;;5078568;28;20151;-76
2022/12/02 06:52:20;;;;;;;8.65;6.03;;;5.00;64.50;;;;;;5071772;28;20502;-76
2022/12/02 06:55:35;;;;;;;7.18;5.93;;;5.00;64.60;;;;;;5071587;28;20607;-84
2022/12/02 06:58:44;;;;;;;8.93;6.65;;;5.00;64.80;;;;;;5065097;28;20510;-84
2022/12/02 07:01:31;;;;;;;8.93;6.75;;;5.10;65.00;;;;;;5082965;28;20092;-84
2022/12/02 07:04:34;;;;;;;10.25;6.72;;;5.10;64.90;;;;;;5082780;28;20127;-84
2022/12/02 07:07:22;;;;;;;8.32;6.30;;;5.10;65.00;;;;;;5075741;28;20047;-84
2022/12/02 07:10:18;;;;;;;9.25;7.03;;;5.20;65.20;;;;;;5082444;28;20090;-76
2022/12/02 07:13:12;;;;;;;9.20;7.15;;;5.20;65.30;;;;;;5079942;28;20104;-83
2022/12/02 07:15:57;;;;;;;9.07;5.90;;;5.20;65.30;;;;;;5076742;28;20060;-84
2022/12/02 07:18:41;;;;;;;8.80;6.28;;;5.20;65.30;;;;;;5075343;28;20032;-82
2022/12/02 07:21:26;;;;;;;8.95;6.75;;;5.20;65.30;;;;;;5075562;28;20120;-82
2022/12/02 07:24:14;;;;;;;10.10;6.35;;;5.20;65.40;;;;;;5081410;28;20536;-83
2022/12/02 07:26:59;;;;;;;8.70;6.05;;;5.20;65.40;;;;;;5082218;28;20054;-84
2022/12/02 07:29:43;;;;;;;8.85;6.32;;;5.20;65.40;;;;;;5070840;28;20043;-82
2022/12/02 07:32:28;;;;;;;9.63;6.85;;;5.10;65.20;;;;;;5073756;28;20041;-82
2022/12/02 07:35:12;;;;;;;9.27;6.70;;;5.20;65.40;;;;;;5086120;28;20112;-80
2022/12/02 07:37:57;;;;;;;7.75;6.45;;;5.10;65.20;;;;;;5084820;28;20093;-77
2022/12/02 07:40:44;;;;;;;8.70;6.55;;;5.10;65.20;;;;;;5067601;28;20047;-77
2022/12/02 07:43:29;;;;;;;8.40;6.45;;;5.10;65.20;;;;;;5085273;28;20153;-76
2022/12/02 07:46:13;;;;;;;7.68;6.25;;;5.20;65.40;;;;;;5089781;28;20043;-82
2022/12/02 07:48:58;;;;;;;8.93;6.40;;;5.10;65.20;;;;;;5096427;28;20051;-82
2022/12/02 07:51:43;;;;;;;7.90;5.78;;;5.10;65.20;;;;;;5079920;28;20068;-79
2022/12/02 07:54:28;;;;;;;7.68;5.90;;;5.10;65.20;;;;;;5102877;28;20586;-80
2022/12/02 07:57:12;;;;;;;8.18;6.22;;;5.10;65.20;;;;;;5105844;28;20043;-77
2022/12/02 07:59:57;;;;;;;10.55;6.93;;;5.10;65.10;;;;;;5096271;28;20097;-78
2022/12/02 08:02:41;;;;;;;7.55;5.90;;;5.10;65.10;;;;;;5097214;28;20046;-77
2022/12/02 08:05:27;;;;;;;7.68;6.05;;;5.10;65.10;;;;;;5088789;28;20397;-78
2022/12/02 08:08:11;;;;;;;9.73;7.30;;;5.10;65.10;;;;;;5085730;28;20055;-82
2022/12/02 08:10:56;;;;;;;10.30;6.43;;;5.10;65.60;;;;;;5092961;28;20662;-82
2022/12/02 08:13:40;;;;;;;8.38;6.72;;;5.10;65.10;;;;;;5088154;28;20414;-81
2022/12/02 08:16:25;;;;;;;8.85;6.50;;;5.10;65.10;;;;;;5065114;28;20109;-79
2022/12/02 08:19:10;;;;;;;10.82;7.05;;;5.10;65.00;;;;;;5084247;28;20220;-79
2022/12/02 08:21:55;;;;;;;9.95;7.93;;;5.10;65.00;;;;;;5073789;28;20564;-79
2022/12/02 08:24:39;;;;;;;11.05;7.05;;;5.10;65.00;;;;;;5083514;28;20043;-78
2022/12/02 08:27:24;;;;;;;9.38;6.82;;;5.10;65.00;;;;;;5086482;28;20347;-77
2022/12/02 08:30:11;;;;;;;9.25;6.88;;;5.10;64.90;;;;;;5079974;28;20093;-79
2022/12/02 08:32:55;;;;;;;9.23;6.80;;;5.20;65.00;;;;;;5089341;28;20120;-78
2022/12/02 08:35:40;;;;;;;7.35;6.47;;;5.20;65.00;;;;;;5072141;28;20101;-79
2022/12/02 08:38:25;;;;;;;8.77;6.55;;;5.20;64.90;;;;;;5080640;28;20043;-77
2022/12/02 08:41:10;;;;;;;8.75;6.72;;;5.20;64.90;;;;;;5085211;28;20051;-76
2022/12/02 08:43:54;;;;;;;8.80;7.35;;;5.20;64.80;;;;;;5084006;28;20039;-92
2022/12/02 08:46:39;;;;;;;9.00;5.97;;;5.20;64.80;;;;;;5085363;28;20050;-86
2022/12/02 08:49:24;;;;;;;10.23;7.68;;;5.30;64.90;;;;;;5080147;28;20040;-91
2022/12/02 08:52:08;;;;;;;8.75;6.70;;;5.30;64.90;;;;;;5083836;28;20065;-92
2022/12/02 08:54:53;;;;;;;8.80;6.05;;;5.30;64.80;;;;;;5084412;28;20403;-88
2022/12/02 08:57:37;;;;;;;9.48;7.40;;;5.30;64.70;;;;;;5083823;28;20040;-87
2022/12/02 09:00:22;;;;;;;10.40;7.45;;;5.30;64.70;;;;;;5075994;28;20039;-87
2022/12/02 09:03:08;;;;;;;8.25;6.30;;;5.40;64.90;;;;;;5085687;28;20093;-88
2022/12/02 09:05:52;;;;;;;9.82;6.82;;;5.40;64.80;;;;;;5083711;28;20233;-89
2022/12/02 09:08:37;;;;;;;10.63;7.53;;;5.40;64.80;;;;;;5083633;28;20042;-78
2022/12/02 09:11:21;;;;;;;8.07;5.78;;;5.40;64.80;;;;;;5078857;28;20070;-77
2022/12/02 09:14:06;;;;;;;9.52;6.63;;;5.50;64.90;;;;;;5082011;28;20197;-77
2022/12/02 09:16:50;;;;;;;9.90;7.25;;;5.50;64.90;;;;;;5083775;28;20396;-81
2022/12/02 09:19:35;;;;;;;10.38;7.25;;;5.50;64.80;;;;;;5079780;28;20081;-84
2022/12/02 09:22:20;;;;;;;10.27;7.10;;;5.60;65.00;;;;;;5083665;28;20039;-82
2022/12/02 09:25:05;;;;;;;9.65;7.22;;;5.60;64.80;;;;;;5084655;28;20039;-81
2022/12/02 09:27:49;;;;;;;9.32;6.85;;;5.70;64.90;;;;;;5075030;28;20567;-80
2022/12/02 09:30:34;;;;;;;11.73;7.93;;;5.70;64.80;;;;;;5083845;28;20513;-79
2022/12/02 09:33:18;;;;;;;11.27;8.07;;;5.70;64.80;;;;;;5082373;28;20181;-80
2022/12/02 09:36:03;;;;;;;9.57;7.45;;;5.80;64.80;;;;;;5084198;28;20047;-81
2022/12/02 09:38:48;;;;;;;10.52;7.32;;;5.80;64.80;;;;;;5083750;28;20055;-82
2022/12/02 09:41:33;;;;;;;12.63;7.72;;;5.80;64.70;;;;;;5070003;28;20060;-81
2022/12/02 09:44:18;;;;;;;10.88;7.65;;;5.80;64.60;;;;;;5090113;28;20517;-81
2022/12/02 09:47:02;;;;;;;10.70;6.95;;;5.90;64.80;;;;;;5082655;28;20070;-78
2022/12/02 09:49:47;;;;;;;9.30;7.40;;;5.80;64.60;;;;;;5075743;28;20082;-78
2022/12/02 09:52:32;;;;;;;9.40;7.45;;;5.80;64.60;;;;;;5083042;28;20383;-77
2022/12/02 09:55:19;;;;;;;9.98;7.32;;;5.90;64.70;;;;;;5073480;28;20402;-77
2022/12/02 09:58:18;;;;;;;10.32;7.40;;;5.90;64.70;;;;;;5081242;28;20059;-77
2022/12/02 10:01:07;;;;;;;10.10;7.35;;;5.90;64.70;;;;;;5083982;28;20871;-79
2022/12/02 10:03:52;;;;;;;10.32;7.57;;;5.90;64.60;;;;;;5084699;28;20109;-77
2022/12/02 10:06:36;;;;;;;9.93;7.32;;;6.00;64.80;;;;;;5078947;28;20058;-80
2022/12/02 10:09:29;;;;;;;10.63;7.28;;;6.00;64.80;;;;;;5084346;28;20043;-78
2022/12/02 10:12:14;;;;;;;11.10;8.10;;;6.00;64.70;;;;;;5078935;28;20058;-79
2022/12/02 10:14:59;;;;;;;9.73;6.93;;;6.10;64.80;;;;;;5081824;28;20038;-79
2022/12/02 10:17:45;;;;;;;8.52;6.72;;;6.10;64.70;;;;;;5075590;28;20105;-77
2022/12/02 10:20:29;;;;;;;9.82;7.40;;;6.10;64.70;;;;;;5078392;28;20359;-77
2022/12/02 10:23:20;;;;;;;8.00;6.32;;;6.20;64.80;;;;;;5074650;28;20082;-82
2022/12/02 10:26:12;;;;;;;8.77;6.97;;;6.30;64.80;;;;;;5082668;28;20042;-83
2022/12/02 10:29:04;;;;;;;9.30;6.82;;;6.30;64.70;;;;;;5075400;28;20481;-81
2022/12/02 10:31:53;;;;;;;8.68;6.55;;;6.30;64.60;;;;;;5083487;28;20038;-80
2022/12/02 10:34:38;;;;;;;9.02;6.75;;;6.40;64.70;;;;;;5078165;28;20051;-79
2022/12/02 10:37:24;;;;;;;8.38;7.22;;;6.50;64.80;;;;;;5070976;28;20050;-81
2022/12/02 10:40:15;;;;;;;8.90;6.97;;;6.50;64.70;;;;;;5083117;28;20039;-80
2022/12/02 10:43:10;;;;;;;7.63;5.93;;;6.50;64.60;;;;;;5083493;28;20068;-77
2022/12/02 10:45:58;;;;;;;9.40;6.72;;;6.60;64.70;;;;;;5066523;28;20555;-75
2022/12/02 10:48:42;;;;;;;8.20;6.57;;;6.70;64.80;;;;;;5068062;28;20058;-76
2022/12/02 10:51:27;;;;;;;7.65;6.20;;;6.80;64.80;;;;;;5082741;28;20046;-80
2022/12/02 10:54:27;;;;;;;8.93;6.43;;;6.90;64.80;;;;;;5080132;28;20373;-83
2022/12/02 10:57:21;;;;;;;8.13;7.05;;;6.90;64.60;;;;;;5087709;28;20098;-80
2022/12/02 11:00:21;;;;;;;7.68;5.95;;;6.90;64.50;;;;;;5081365;28;20097;-79
2022/12/02 11:03:05;;;;;;;8.70;6.72;;;6.90;64.40;;;;;;5083507;28;20034;-77
2022/12/02 11:05:51;;;;;;;7.88;5.88;;;7.00;64.60;;;;;;5085521;28;20407;-80
2022/12/02 11:08:35;;;;;;;7.57;6.78;;;7.00;64.50;;;;;;5084875;28;20051;-80
2022/12/02 11:11:23;;;;;;;8.23;6.57;;;7.10;64.70;;;;;;5086845;28;20155;-81
2022/12/02 11:14:50;;;;;;;7.47;6.28;;;7.10;64.60;;;;;;5069300;28;20133;-83
2022/12/02 11:17:49;;;;;;;8.43;6.72;;;7.20;64.60;;;;;;5085483;28;20051;-79
2022/12/02 11:20:39;;;;;;;9.13;7.13;;;7.30;64.70;;;;;;5081768;28;20505;-77
2022/12/02 11:23:29;;;;;;;7.68;6.45;;;7.30;64.60;;;;;;5071660;28;20051;-78
2022/12/02 11:26:14;;;;;;;7.95;6.63;;;7.30;64.40;;;;;;5084970;28;20161;-78
2022/12/02 11:29:15;;;;;;;9.88;7.18;;;7.40;64.50;;;;;;5085497;28;20093;-78
2022/12/02 11:32:18;;;;;;;9.88;7.63;;;7.50;64.50;;;;;;5070313;28;20043;-76
2022/12/02 11:35:03;;;;;;;8.63;7.13;;;7.50;64.40;;;;;;5087169;28;20105;-77
2022/12/02 11:37:47;;;;;;;8.75;7.35;;;7.60;64.50;;;;;;5083359;28;20197;-77
2022/12/02 11:40:32;;;;;;;9.50;7.82;;;7.60;64.40;;;;;;5079335;28;20040;-79
2022/12/02 11:43:40;;;;;;;8.77;6.72;;;7.70;64.50;;;;;;5072687;28;20067;-78
2022/12/02 11:46:47;;;;;;;10.50;7.38;;;7.70;64.40;;;;;;5086427;28;20039;-83
2022/12/02 11:49:39;;;;;;;9.02;7.90;;;7.70;64.30;;;;;;5081796;28;20133;-79
2022/12/02 11:52:25;;;;;;;7.53;6.68;;;7.80;64.40;;;;;;5088470;28;20047;-84
2022/12/02 11:55:22;;;;;;;7.13;6.43;;;7.80;64.50;;;;;;5067693;28;20544;-78
2022/12/02 11:58:17;;;;;;;8.40;7.43;;;7.90;64.70;;;;;;5085377;28;20043;-83
2022/12/02 12:01:26;;;;;;;9.38;7.70;;;8.00;64.80;;;;;;5084012;28;20513;-83
2022/12/02 12:04:27;;;;;;;8.23;7.32;;;8.00;64.60;;;;;;5089166;28;20086;-82
2022/12/02 12:07:12;;;;;;;8.55;7.38;;;8.10;64.70;;;;;;5085966;28;20054;-82
2022/12/02 12:09:58;;;;;;;9.88;7.75;;;8.10;64.60;;;;;;5087420;28;20564;-80
2022/12/02 12:13:19;;;;;;;10.00;7.60;;;8.10;64.50;;;;;;5075930;28;20641;-77
2022/12/02 12:16:03;;;;;;;10.02;7.85;;;8.10;64.40;;;;;;5041581;28;20223;-79
2022/12/02 12:18:49;;;;;;;9.73;7.00;;;8.10;64.40;;;;;;5076991;28;20468;-79
2022/12/02 12:21:40;;;;;;;8.85;7.20;;;8.10;64.30;;;;;;5084354;28;20047;-80
2022/12/02 12:24:27;;;;;;;10.43;8.02;;;8.20;64.50;;;;;;5075744;28;20122;-79
2022/12/02 12:27:31;;;;;;;8.82;7.93;;;8.20;65.00;;;;;;5085559;28;20085;-80
2022/12/02 12:30:15;;;;;;;9.40;7.30;;;8.20;64.40;;;;;;5086168;28;20107;-80
2022/12/02 12:33:00;;;;;;;9.70;8.55;;;8.20;64.40;;;;;;5078794;28;20074;-80
2022/12/02 12:35:44;;;;;;;9.65;8.35;;;8.20;64.30;;;;;;5073408;28;20452;-80
2022/12/02 12:38:29;;;;;;;8.88;7.93;;;8.20;64.30;;;;;;5088055;28;20047;-79
2022/12/02 12:41:14;;;;;;;8.93;8.02;;;8.20;64.70;;;;;;5072862;28;20529;-79
2022/12/02 12:43:58;;;;;;;9.70;7.75;;;8.30;64.40;;;;;;5073769;28;20441;-80
2022/12/02 12:46:43;;;;;;;9.30;7.70;;;8.30;64.30;;;;;;5073776;28;20059;-80
2022/12/02 12:49:27;;;;;;;9.43;8.43;;;8.30;64.20;;;;;;5082674;28;20111;-81
2022/12/02 12:52:12;;;;;;;9.15;8.25;;;8.30;64.20;;;;;;5082930;28;20043;-80
2022/12/02 12:54:57;;;;;;;9.52;7.75;;;8.30;64.20;;;;;;5085198;28;20066;-79
2022/12/02 12:57:41;;;;;;;9.27;7.95;;;8.30;64.20;;;;;;5079446;28;20418;-79
2022/12/02 13:00:26;;;;;;;9.38;8.20;;;8.30;64.10;;;;;;5085199;28;20051;-80
2022/12/02 13:03:10;;;;;;;9.55;8.32;;;8.20;63.90;;;;;;5085339;28;20505;-85
2022/12/02 13:05:55;;;;;;;9.73;8.27;;;8.20;63.90;;;;;;5084960;28;20230;-82
2022/12/02 13:08:39;;;;;;;8.85;7.97;;;8.20;63.90;;;;;;5079841;28;20047;-81
2022/12/02 13:11:25;;;;;;;9.65;8.15;;;8.20;64.00;;;;;;5080505;28;20118;-82
2022/12/02 13:14:09;;;;;;;9.45;8.45;;;8.20;63.90;;;;;;5082684;28;20043;-82
2022/12/02 13:16:54;;;;;;;10.63;8.88;;;8.30;64.10;;;;;;5074740;28;20699;-82
2022/12/02 13:19:38;;;;;;;9.77;8.70;;;8.30;64.00;;;;;;5074681;28;20047;-83
2022/12/02 13:22:23;;;;;;;10.50;9.38;;;8.30;64.00;;;;;;5082719;28;20089;-83
2022/12/02 13:25:09;;;;;;;11.13;8.90;;;8.30;63.90;;;;;;5077706;28;20089;-82
2022/12/02 13:27:54;;;;;;;10.88;9.10;;;8.30;63.90;;;;;;5085027;28;20088;-82
2022/12/02 13:30:38;;;;;;;10.73;8.57;;;8.20;63.80;;;;;;5084295;28;20043;-85
2022/12/02 13:33:23;;;;;;;12.25;9.60;;;8.20;63.80;;;;;;5063018;28;20071;-82
2022/12/02 13:36:08;;;;;;;10.43;9.07;;;8.20;63.80;;;;;;5084392;28;20502;-81
2022/12/02 13:38:52;;;;;;;11.32;8.90;;;8.20;63.80;;;;;;5086043;28;20043;-81
2022/12/02 13:41:38;;;;;;;10.02;8.98;;;8.20;63.80;;;;;;5080935;28;20501;-81
2022/12/02 13:44:22;;;;;;;9.45;8.50;;;8.20;63.80;;;;;;5085510;28;20119;-80
2022/12/02 13:47:07;;;;;;;10.27;8.38;;;8.20;63.80;;;;;;5069569;28;20080;-84
2022/12/02 13:49:52;;;;;;;10.23;8.18;;;8.10;63.60;;;;;;5081623;28;20042;-83
2022/12/02 13:52:37;;;;;;;10.00;8.25;;;8.10;63.70;;;;;;5081750;28;20047;-84
2022/12/02 13:55:21;;;;;;;10.35;8.70;;;8.10;63.70;;;;;;5075296;28;20081;-82
2022/12/02 13:58:06;;;;;;;9.65;8.65;;;8.00;63.60;;;;;;5082405;28;20070;-80
2022/12/02 14:00:50;;;;;;;9.15;7.72;;;8.00;63.70;;;;;;5062936;28;20071;-81
2022/12/02 14:03:35;;;;;;;11.32;8.50;;;8.00;63.70;;;;;;5069653;28;20057;-81
2022/12/02 14:06:20;;;;;;;9.20;7.97;;;8.00;63.70;;;;;;5080573;28;20210;-81
2022/12/02 14:09:04;;;;;;;11.40;8.30;;;8.00;63.70;;;;;;5079969;28;20089;-79
2022/12/02 14:11:49;;;;;;;10.85;8.75;;;8.00;63.70;;;;;;5077620;28;20044;-79
2022/12/02 14:14:33;;;;;;;8.60;7.80;;;8.00;63.70;;;;;;5082519;28;20060;-79
2022/12/02 14:17:18;;;;;;;10.18;8.38;;;8.00;63.60;;;;;;5081242;28;20080;-78
2022/12/02 14:20:03;;;;;;;9.43;8.43;;;8.00;63.60;;;;;;5082279;28;20131;-81
2022/12/02 14:22:48;;;;;;;9.90;8.90;;;8.10;63.80;;;;;;5082215;28;20062;-81
2022/12/02 14:25:33;;;;;;;10.02;8.88;;;8.10;63.80;;;;;;5084352;28;20296;-81
2022/12/02 14:28:17;;;;;;;11.60;8.77;;;8.10;63.80;;;;;;5076601;28;20518;-79
2022/12/02 14:31:02;;;;;;;8.55;7.65;;;8.00;63.60;;;;;;5082805;28;20078;-80
2022/12/02 14:33:46;;;;;;;10.07;8.80;;;8.10;63.70;;;;;;5082703;28;20051;-82
2022/12/02 14:36:31;;;;;;;9.75;8.48;;;8.10;63.70;;;;;;5073234;28;20343;-81
2022/12/02 14:39:15;;;;;;;10.18;8.50;;;8.00;63.60;;;;;;5082681;28;20633;-81
2022/12/02 14:42:00;;;;;;;11.82;8.60;;;8.00;63.60;;;;;;5070619;28;20046;-81